createdAt,value
2018-07-29T00:00:13.883Z,3.30
2018-07-29T00:01:13.886Z,4.00
2018-07-29T00:02:13.767Z,3.40
2018-07-29T00:03:13.764Z,3.50
2018-07-29T00:04:13.763Z,3.20
2018-07-29T00:05:13.643Z,3.40
2018-07-29T00:06:13.727Z,3.70
2018-07-29T00:07:13.647Z,3.40
2018-07-29T00:08:13.524Z,3.70
2018-07-29T00:09:13.523Z,3.80
2018-07-29T00:10:13.527Z,3.50
2018-07-29T00:11:13.402Z,3.20
2018-07-29T00:12:13.479Z,3.80
2018-07-29T00:13:13.402Z,3.40
2018-07-29T00:14:13.281Z,3.30
2018-07-29T00:15:13.281Z,3.50
2018-07-29T00:16:13.281Z,3.60
2018-07-29T00:17:13.161Z,3.60
2018-07-29T00:18:13.244Z,3.50
2018-07-29T00:19:13.163Z,3.70
2018-07-29T00:20:13.043Z,3.60
2018-07-29T00:21:13.117Z,3.40
2018-07-29T00:22:13.038Z,3.00
2018-07-29T00:23:12.925Z,3.20
2018-07-29T00:24:12.922Z,3.60
2018-07-29T00:25:13.001Z,3.40
2018-07-29T00:26:12.799Z,3.20
2018-07-29T00:27:12.798Z,3.60
2018-07-29T00:28:12.877Z,3.30
2018-07-29T00:29:12.756Z,4.00
2018-07-29T00:30:12.677Z,3.50
2018-07-29T00:31:12.681Z,3.20
2018-07-29T00:32:12.561Z,3.40
2018-07-29T00:33:12.558Z,3.10
2018-07-29T00:34:12.517Z,3.50
2018-07-29T00:35:12.437Z,3.10
2018-07-29T00:36:12.440Z,3.40
2018-07-29T00:37:12.319Z,4.00
2018-07-29T00:38:12.320Z,3.60
2018-07-29T00:39:12.315Z,3.20
2018-07-29T00:40:12.194Z,3.20
2018-07-29T00:41:12.201Z,3.10
2018-07-29T00:42:12.192Z,3.50
2018-07-29T00:43:12.073Z,3.10
2018-07-29T00:44:12.078Z,3.30
2018-07-29T00:45:12.074Z,3.00
2018-07-29T00:46:11.953Z,2.90
2018-07-29T00:47:11.958Z,3.40
2018-07-29T00:48:11.955Z,3.60
2018-07-29T00:49:11.834Z,3.40
2018-07-29T00:50:11.831Z,3.50
2018-07-29T00:51:11.832Z,3.40
2018-07-29T00:52:11.715Z,3.30
2018-07-29T00:53:11.768Z,3.30
2018-07-29T00:54:11.790Z,3.70
2018-07-29T00:55:11.594Z,3.40
2018-07-29T00:56:11.590Z,3.30
2018-07-29T00:57:11.670Z,3.10
2018-07-29T00:58:11.476Z,3.20
2018-07-29T00:59:11.549Z,3.50
2018-07-29T01:00:11.471Z,3.20
2018-07-29T01:01:11.351Z,3.30
2018-07-29T01:02:11.350Z,2.90
2018-07-29T01:03:11.430Z,3.20
2018-07-29T01:04:11.309Z,3.60
2018-07-29T01:05:11.228Z,3.10
2018-07-29T01:06:11.308Z,3.50
2018-07-29T01:07:11.109Z,3.10
2018-07-29T01:08:11.107Z,3.50
2018-07-29T01:09:11.107Z,3.50
2018-07-29T01:10:10.990Z,3.20
2018-07-29T01:11:10.987Z,3.40
2018-07-29T01:12:10.993Z,3.40
2018-07-29T01:13:10.870Z,3.40
2018-07-29T01:14:10.867Z,3.60
2018-07-29T01:15:10.866Z,3.20
2018-07-29T01:16:10.745Z,3.40
2018-07-29T01:17:10.745Z,3.50
2018-07-29T01:18:10.744Z,3.40
2018-07-29T01:19:10.624Z,3.50
2018-07-29T01:20:10.627Z,3.30
2018-07-29T01:21:10.582Z,3.20
2018-07-29T01:22:10.506Z,3.10
2018-07-29T01:23:10.505Z,3.00
2018-07-29T01:24:10.462Z,3.40
2018-07-29T01:25:10.385Z,3.40
2018-07-29T01:26:10.383Z,3.70
2018-07-29T01:27:10.261Z,3.30
2018-07-29T01:28:10.263Z,3.70
2018-07-29T01:29:10.263Z,3.60
2018-07-29T01:30:10.153Z,3.50
2018-07-29T01:31:10.143Z,3.10
2018-07-29T01:32:10.141Z,3.30
2018-07-29T01:33:10.027Z,3.60
2018-07-29T01:34:10.021Z,3.30
2018-07-29T01:35:10.024Z,4.10
2018-07-29T01:36:09.899Z,3.30
2018-07-29T01:37:09.901Z,3.90
2018-07-29T01:38:09.904Z,3.50
2018-07-29T01:39:09.780Z,3.40
2018-07-29T01:40:09.860Z,3.50
2018-07-29T01:41:09.780Z,3.70
2018-07-29T01:42:09.659Z,3.80
2018-07-29T01:43:09.660Z,3.60
2018-07-29T01:44:09.739Z,3.40
2018-07-29T01:45:09.554Z,3.60
2018-07-29T01:46:09.540Z,3.70
2018-07-29T01:47:09.542Z,3.40
2018-07-29T01:48:09.509Z,3.10
2018-07-29T01:49:09.417Z,3.10
2018-07-29T01:50:09.416Z,3.60
2018-07-29T01:51:09.302Z,3.10
2018-07-29T01:52:09.301Z,3.30
2018-07-29T01:53:09.538Z,3.10
2018-07-29T01:54:09.187Z,4.20
2018-07-29T01:55:09.179Z,3.30
2018-07-29T01:56:09.186Z,3.40
2018-07-29T01:57:09.063Z,4.10
2018-07-29T01:58:09.132Z,4.20
2018-07-29T01:59:09.024Z,4.50
2018-07-29T02:00:08.934Z,5.30
2018-07-29T02:01:08.936Z,5.10
2018-07-29T02:02:08.814Z,5.40
2018-07-29T02:03:08.814Z,5.80
2018-07-29T02:04:08.816Z,5.60
2018-07-29T02:05:08.696Z,5.30
2018-07-29T02:06:08.773Z,5.10
2018-07-29T02:07:08.695Z,5.30
2018-07-29T02:08:08.576Z,5.20
2018-07-29T02:09:08.575Z,5.20
2018-07-29T02:10:08.574Z,5.80
2018-07-29T02:11:08.458Z,6.10
2018-07-29T02:12:08.461Z,5.80
2018-07-29T02:13:08.458Z,6.80
2018-07-29T02:14:08.332Z,9.70
2018-07-29T02:15:08.650Z,9.50
2018-07-29T02:16:08.333Z,10.50
2018-07-29T02:17:08.211Z,11.20
2018-07-29T02:18:08.214Z,12.70
2018-07-29T02:19:08.212Z,10.90
2018-07-29T02:20:08.170Z,12.00
2018-07-29T02:21:08.091Z,11.50
2018-07-29T02:22:08.095Z,11.30
2018-07-29T02:23:07.982Z,11.70
2018-07-29T02:24:08.050Z,12.20
2018-07-29T02:25:07.976Z,12.10
2018-07-29T02:26:07.848Z,12.30
2018-07-29T02:27:07.851Z,11.30
2018-07-29T02:28:08.169Z,12.50
2018-07-29T02:29:07.856Z,12.40
2018-07-29T02:30:07.730Z,12.10
2018-07-29T02:31:07.728Z,12.30
2018-07-29T02:32:07.608Z,12.00
2018-07-29T02:33:07.611Z,12.10
2018-07-29T02:34:07.606Z,12.10
2018-07-29T02:35:07.488Z,11.50
2018-07-29T02:36:07.487Z,12.60
2018-07-29T02:37:07.447Z,14.40
2018-07-29T02:38:07.369Z,13.30
2018-07-29T02:39:07.368Z,13.10
2018-07-29T02:40:07.385Z,13.20
2018-07-29T02:41:07.249Z,13.80
2018-07-29T02:42:07.360Z,12.00
2018-07-29T02:43:07.130Z,13.60
2018-07-29T02:44:07.131Z,14.20
2018-07-29T02:45:07.202Z,14.50
2018-07-29T02:46:07.010Z,14.20
2018-07-29T02:47:07.006Z,14.40
2018-07-29T02:48:07.022Z,13.90
2018-07-29T02:49:06.886Z,15.40
2018-07-29T02:50:06.883Z,15.60
2018-07-29T02:51:06.886Z,14.90
2018-07-29T02:52:06.765Z,14.90
2018-07-29T02:53:06.764Z,16.10
2018-07-29T02:54:06.761Z,15.40
2018-07-29T02:55:06.663Z,14.80
2018-07-29T02:56:06.644Z,15.60
2018-07-29T02:57:06.647Z,15.50
2018-07-29T02:58:06.524Z,15.40
2018-07-29T02:59:06.526Z,16.10
2018-07-29T03:00:06.523Z,15.80
2018-07-29T03:01:06.405Z,15.30
2018-07-29T03:02:06.402Z,15.90
2018-07-29T03:03:06.403Z,16.40
2018-07-29T03:04:06.287Z,16.50
2018-07-29T03:05:06.281Z,16.40
2018-07-29T03:06:06.281Z,16.00
2018-07-29T03:07:06.165Z,15.80
2018-07-29T03:08:06.162Z,17.60
2018-07-29T03:09:06.169Z,16.10
2018-07-29T03:10:06.042Z,17.30
2018-07-29T03:11:06.046Z,16.10
2018-07-29T03:12:06.041Z,16.00
2018-07-29T03:13:05.925Z,16.10
2018-07-29T03:14:05.919Z,15.60
2018-07-29T03:15:05.920Z,16.50
2018-07-29T03:16:05.799Z,16.60
2018-07-29T03:17:05.799Z,17.10
2018-07-29T03:18:05.803Z,17.10
2018-07-29T03:19:05.677Z,16.00
2018-07-29T03:20:05.678Z,16.00
2018-07-29T03:21:05.678Z,16.80
2018-07-29T03:22:05.569Z,16.40
2018-07-29T03:23:05.558Z,16.40
2018-07-29T03:24:05.559Z,16.40
2018-07-29T03:25:05.437Z,16.20
2018-07-29T03:26:05.437Z,16.80
2018-07-29T03:27:05.438Z,17.20
2018-07-29T03:28:05.316Z,16.10
2018-07-29T03:29:05.317Z,16.70
2018-07-29T03:30:05.315Z,16.30
2018-07-29T03:31:05.197Z,16.30
2018-07-29T03:32:05.201Z,15.40
2018-07-29T03:33:05.194Z,15.90
2018-07-29T03:34:05.076Z,16.50
2018-07-29T03:35:05.079Z,17.20
2018-07-29T03:36:05.075Z,15.30
2018-07-29T03:37:04.953Z,15.70
2018-07-29T03:38:04.955Z,15.60
2018-07-29T03:39:04.952Z,15.80
2018-07-29T03:40:04.833Z,15.30
2018-07-29T03:41:04.832Z,16.00
2018-07-29T03:42:04.836Z,14.90
2018-07-29T03:43:04.713Z,15.20
2018-07-29T03:44:04.716Z,14.90
2018-07-29T03:45:04.713Z,15.40
2018-07-29T03:46:04.593Z,14.60
2018-07-29T03:47:04.591Z,14.40
2018-07-29T03:48:04.590Z,14.00
2018-07-29T03:49:04.472Z,14.30
2018-07-29T03:50:04.472Z,13.40
2018-07-29T03:51:04.429Z,13.60
2018-07-29T03:52:04.351Z,13.60
2018-07-29T03:53:04.350Z,13.40
2018-07-29T03:54:04.231Z,13.40
2018-07-29T03:55:04.230Z,12.70
2018-07-29T03:56:04.230Z,12.30
2018-07-29T03:57:04.113Z,12.90
2018-07-29T03:58:04.109Z,12.00
2018-07-29T03:59:04.108Z,11.60
2018-07-29T04:00:03.989Z,12.00
2018-07-29T04:01:03.991Z,11.50
2018-07-29T04:02:03.989Z,11.80
2018-07-29T04:03:03.874Z,11.70
2018-07-29T04:04:03.871Z,11.20
2018-07-29T04:05:03.874Z,11.60
2018-07-29T04:06:03.746Z,11.30
2018-07-29T04:07:03.749Z,10.50
2018-07-29T04:08:03.746Z,10.10
2018-07-29T04:09:03.632Z,10.00
2018-07-29T04:10:03.626Z,9.90
2018-07-29T04:11:03.625Z,10.40
2018-07-29T04:12:03.558Z,9.90
2018-07-29T04:13:03.508Z,10.10
2018-07-29T04:14:03.505Z,9.30
2018-07-29T04:15:03.386Z,9.60
2018-07-29T04:16:03.385Z,8.90
2018-07-29T04:17:03.386Z,8.60
2018-07-29T04:18:03.269Z,8.80
2018-07-29T04:19:03.265Z,8.90
2018-07-29T04:20:03.269Z,8.50
2018-07-29T04:21:03.148Z,8.60
2018-07-29T04:22:03.144Z,8.80
2018-07-29T04:23:03.143Z,8.60
2018-07-29T04:24:03.024Z,7.90
2018-07-29T04:25:03.023Z,8.50
2018-07-29T04:26:03.024Z,8.40
2018-07-29T04:27:02.905Z,8.10
2018-07-29T04:28:02.904Z,7.90
2018-07-29T04:29:02.901Z,8.70
2018-07-29T04:30:02.785Z,8.30
2018-07-29T04:31:02.783Z,8.30
2018-07-29T04:32:02.782Z,8.10
2018-07-29T04:33:02.666Z,7.90
2018-07-29T04:34:02.664Z,7.80
2018-07-29T04:35:02.662Z,7.70
2018-07-29T04:36:02.542Z,7.40
2018-07-29T04:37:02.540Z,7.20
2018-07-29T04:38:02.542Z,7.20
2018-07-29T04:39:02.421Z,7.80
2018-07-29T04:40:02.421Z,7.60
2018-07-29T04:41:02.420Z,7.80
2018-07-29T04:42:02.377Z,7.40
2018-07-29T04:43:02.302Z,6.90
2018-07-29T04:44:02.299Z,6.60
2018-07-29T04:45:02.257Z,6.90
2018-07-29T04:46:02.304Z,7.10
2018-07-29T04:47:02.295Z,7.20
2018-07-29T04:48:02.060Z,6.90
2018-07-29T04:49:02.059Z,7.30
2018-07-29T04:50:02.063Z,7.10
2018-07-29T04:51:01.939Z,6.70
2018-07-29T04:52:01.937Z,6.90
2018-07-29T04:53:01.937Z,7.20
2018-07-29T04:54:01.817Z,6.70
2018-07-29T04:55:01.829Z,7.00
2018-07-29T04:56:01.816Z,6.70
2018-07-29T04:57:01.698Z,7.10
2018-07-29T04:58:01.696Z,7.10
2018-07-29T04:59:01.703Z,6.80
2018-07-29T05:00:01.578Z,7.50
2018-07-29T05:01:01.574Z,7.20
2018-07-29T05:02:01.577Z,7.40
2018-07-29T05:03:01.456Z,7.00
2018-07-29T05:04:01.457Z,7.30
2018-07-29T05:05:01.462Z,7.30
2018-07-29T05:06:01.336Z,7.20
2018-07-29T05:07:01.334Z,7.30
2018-07-29T05:08:01.335Z,7.10
2018-07-29T05:09:01.223Z,7.30
2018-07-29T05:10:01.214Z,7.00
2018-07-29T05:11:01.279Z,7.70
2018-07-29T05:12:01.096Z,7.80
2018-07-29T05:13:01.096Z,7.80
2018-07-29T05:14:01.051Z,8.20
2018-07-29T05:15:00.971Z,8.30
2018-07-29T05:16:00.974Z,7.60
2018-07-29T05:17:00.930Z,8.70
2018-07-29T05:18:00.852Z,7.70
2018-07-29T05:19:00.853Z,7.80
2018-07-29T05:20:00.809Z,7.70
2018-07-29T05:21:00.732Z,8.80
2018-07-29T05:22:00.731Z,8.50
2018-07-29T05:23:00.689Z,8.10
2018-07-29T05:24:00.610Z,7.90
2018-07-29T05:25:00.667Z,8.10
2018-07-29T05:26:00.545Z,8.90
2018-07-29T05:27:00.496Z,8.40
2018-07-29T05:28:00.491Z,8.00
2018-07-29T05:29:00.375Z,7.60
2018-07-29T05:30:00.380Z,7.80
2018-07-29T05:31:00.371Z,8.50
2018-07-29T05:32:00.250Z,8.50
2018-07-29T05:33:00.248Z,8.10
2018-07-29T05:34:00.248Z,8.40
2018-07-29T05:35:00.128Z,8.00
2018-07-29T05:36:00.127Z,8.00
2018-07-29T05:37:00.128Z,8.60
2018-07-29T05:38:00.010Z,8.50
2018-07-29T05:39:00.009Z,8.10
2018-07-29T05:40:00.011Z,7.90
2018-07-29T05:40:59.887Z,7.80
2018-07-29T05:41:59.887Z,7.60
2018-07-29T05:42:59.885Z,8.00
2018-07-29T05:43:59.771Z,8.10
2018-07-29T05:44:59.765Z,8.20
2018-07-29T05:45:59.765Z,8.00
2018-07-29T05:46:59.646Z,8.20
2018-07-29T05:47:59.647Z,8.40
2018-07-29T05:48:59.646Z,8.80
2018-07-29T05:49:59.524Z,9.00
2018-07-29T05:50:59.524Z,8.20
2018-07-29T05:51:59.525Z,8.40
2018-07-29T05:52:59.405Z,8.60
2018-07-29T05:53:59.406Z,8.60
2018-07-29T05:54:59.406Z,9.00
2018-07-29T05:55:59.303Z,8.90
2018-07-29T05:56:59.282Z,9.20
2018-07-29T05:57:59.283Z,8.90
2018-07-29T05:58:59.162Z,9.10
2018-07-29T05:59:59.165Z,8.90
2018-07-29T06:00:59.161Z,9.00
2018-07-29T06:01:59.040Z,8.90
2018-07-29T06:02:59.045Z,9.10
2018-07-29T06:03:59.043Z,8.80
2018-07-29T06:04:58.924Z,8.80
2018-07-29T06:05:58.920Z,9.20
2018-07-29T06:06:58.920Z,9.10
2018-07-29T06:07:58.800Z,9.00
2018-07-29T06:08:58.800Z,8.70
2018-07-29T06:09:58.801Z,9.20
2018-07-29T06:10:58.679Z,9.20
2018-07-29T06:11:58.682Z,9.10
2018-07-29T06:12:58.680Z,9.20
2018-07-29T06:13:58.562Z,8.90
2018-07-29T06:14:58.558Z,9.00
2018-07-29T06:15:58.603Z,8.40
2018-07-29T06:16:58.439Z,8.50
2018-07-29T06:17:58.439Z,8.20
2018-07-29T06:18:58.438Z,8.10
2018-07-29T06:19:58.321Z,8.40
2018-07-29T06:20:58.317Z,8.60
2018-07-29T06:21:58.321Z,9.00
2018-07-29T06:22:58.196Z,7.70
2018-07-29T06:23:58.200Z,8.10
2018-07-29T06:24:58.196Z,8.10
2018-07-29T06:25:58.112Z,7.20
2018-07-29T06:26:58.124Z,7.70
2018-07-29T06:27:58.078Z,7.60
2018-07-29T06:28:57.956Z,8.30
2018-07-29T06:29:57.955Z,8.80
2018-07-29T06:30:57.961Z,8.60
2018-07-29T06:31:57.835Z,7.90
2018-07-29T06:32:57.836Z,7.90
2018-07-29T06:33:57.835Z,8.00
2018-07-29T06:34:57.722Z,8.10
2018-07-29T06:35:57.713Z,7.40
2018-07-29T06:36:57.715Z,7.30
2018-07-29T06:37:57.594Z,6.80
2018-07-29T06:38:57.593Z,7.30
2018-07-29T06:39:57.594Z,6.60
2018-07-29T06:40:57.474Z,6.00
2018-07-29T06:41:57.472Z,6.20
2018-07-29T06:42:57.474Z,5.60
2018-07-29T06:43:57.429Z,5.80
2018-07-29T06:44:57.351Z,6.00
2018-07-29T06:45:57.354Z,5.20
2018-07-29T06:46:57.310Z,5.70
2018-07-29T06:47:57.234Z,5.50
2018-07-29T06:48:57.233Z,5.50
2018-07-29T06:49:57.192Z,5.10
2018-07-29T06:50:57.114Z,5.10
2018-07-29T06:51:57.110Z,5.20
2018-07-29T06:52:57.067Z,5.20
2018-07-29T06:53:56.990Z,5.10
2018-07-29T06:54:56.988Z,5.00
2018-07-29T06:55:56.952Z,5.00
2018-07-29T06:56:56.868Z,4.80
2018-07-29T06:57:56.871Z,4.80
2018-07-29T06:58:56.869Z,4.40
2018-07-29T06:59:56.750Z,4.80
2018-07-29T07:00:56.748Z,4.60
2018-07-29T07:01:56.747Z,4.80
2018-07-29T07:02:56.627Z,4.70
2018-07-29T07:03:56.628Z,4.70
2018-07-29T07:04:56.627Z,4.50
2018-07-29T07:05:56.508Z,4.30
2018-07-29T07:06:56.518Z,4.20
2018-07-29T07:07:56.505Z,4.60
2018-07-29T07:08:56.386Z,4.50
2018-07-29T07:09:56.390Z,4.50
2018-07-29T07:10:56.387Z,4.50
2018-07-29T07:11:56.267Z,4.20
2018-07-29T07:12:56.266Z,4.60
2018-07-29T07:13:56.271Z,3.90
2018-07-29T07:14:56.146Z,4.20
2018-07-29T07:15:56.148Z,4.20
2018-07-29T07:16:56.144Z,4.50
2018-07-29T07:17:56.050Z,4.30
2018-07-29T07:18:56.032Z,4.10
2018-07-29T07:19:56.023Z,4.10
2018-07-29T07:20:55.901Z,4.10
2018-07-29T07:21:55.901Z,4.00
2018-07-29T07:22:55.901Z,3.90
2018-07-29T07:23:55.783Z,3.80
2018-07-29T07:24:55.780Z,3.80
2018-07-29T07:25:55.784Z,4.20
2018-07-29T07:26:55.661Z,4.00
2018-07-29T07:27:55.668Z,4.30
2018-07-29T07:28:55.667Z,3.90
2018-07-29T07:29:55.540Z,3.90
2018-07-29T07:30:55.544Z,4.00
2018-07-29T07:31:55.542Z,3.80
2018-07-29T07:32:55.423Z,3.50
2018-07-29T07:33:55.418Z,3.50
2018-07-29T07:34:55.422Z,3.40
2018-07-29T07:35:55.298Z,3.50
2018-07-29T07:36:55.298Z,3.50
2018-07-29T07:37:55.298Z,3.60
2018-07-29T07:38:55.257Z,3.80
2018-07-29T07:39:55.180Z,3.20
2018-07-29T07:40:55.178Z,3.70
2018-07-29T07:41:55.135Z,3.70
2018-07-29T07:42:55.056Z,3.30
2018-07-29T07:43:55.056Z,3.70
2018-07-29T07:44:55.058Z,3.60
2018-07-29T07:45:54.953Z,3.20
2018-07-29T07:46:54.938Z,3.00
2018-07-29T07:47:54.936Z,3.60
2018-07-29T07:48:54.815Z,3.50
2018-07-29T07:49:54.822Z,3.20
2018-07-29T07:50:54.817Z,3.80
2018-07-29T07:51:54.694Z,3.30
2018-07-29T07:52:54.701Z,3.40
2018-07-29T07:53:54.693Z,3.70
2018-07-29T07:54:54.575Z,3.70
2018-07-29T07:55:54.576Z,3.40
2018-07-29T07:56:54.574Z,3.20
2018-07-29T07:57:54.452Z,3.30
2018-07-29T07:58:54.452Z,3.40
2018-07-29T07:59:54.452Z,3.10
2018-07-29T08:00:54.350Z,3.40
2018-07-29T08:01:54.410Z,3.30
2018-07-29T08:02:54.333Z,3.40
2018-07-29T08:03:54.215Z,3.80
2018-07-29T08:04:54.214Z,3.20
2018-07-29T08:05:54.211Z,3.50
2018-07-29T08:06:54.168Z,3.50
2018-07-29T08:07:54.098Z,3.50
2018-07-29T08:08:54.096Z,3.30
2018-07-29T08:09:54.089Z,3.30
2018-07-29T08:10:53.973Z,3.30
2018-07-29T08:11:56.128Z,3.40
2018-07-29T08:12:53.968Z,3.50
2018-07-29T08:13:53.846Z,3.60
2018-07-29T08:14:53.848Z,3.50
2018-07-29T08:15:53.858Z,3.60
2018-07-29T08:16:56.327Z,3.40
2018-07-29T08:17:53.669Z,3.60
2018-07-29T08:18:53.636Z,3.20
2018-07-29T08:19:53.595Z,3.60
2018-07-29T08:20:53.555Z,3.10
2018-07-29T08:21:53.517Z,3.20
2018-07-29T08:22:53.477Z,3.30
2018-07-29T08:23:53.439Z,3.60
2018-07-29T08:24:53.402Z,3.40
2018-07-29T08:25:53.371Z,3.40
2018-07-29T08:26:53.327Z,3.20
2018-07-29T08:27:53.333Z,3.60
2018-07-29T08:28:53.255Z,3.40
2018-07-29T08:29:53.215Z,3.40
2018-07-29T08:30:53.179Z,3.20
2018-07-29T08:31:53.135Z,4.00
2018-07-29T08:32:53.100Z,3.30
2018-07-29T08:33:53.063Z,3.20
2018-07-29T08:34:53.024Z,3.40
2018-07-29T08:35:52.984Z,3.10
2018-07-29T08:36:52.952Z,2.90
2018-07-29T08:37:52.928Z,2.90
2018-07-29T08:38:52.901Z,3.00
2018-07-29T08:39:52.833Z,3.10
2018-07-29T08:40:52.805Z,2.80
2018-07-29T08:41:52.760Z,3.10
2018-07-29T08:42:52.724Z,3.30
2018-07-29T08:43:52.686Z,3.00
2018-07-29T08:44:52.684Z,3.20
2018-07-29T08:45:52.684Z,3.00
2018-07-29T08:46:52.682Z,3.80
2018-07-29T08:47:52.564Z,2.70
2018-07-29T08:48:52.563Z,3.20
2018-07-29T08:49:52.560Z,3.50
2018-07-29T08:50:52.441Z,3.00
2018-07-29T08:51:52.442Z,3.00
2018-07-29T08:52:52.446Z,2.90
2018-07-29T08:53:52.320Z,3.10
2018-07-29T08:55:52.323Z,3.10
2018-07-29T08:57:52.215Z,3.00
2018-07-29T08:58:52.199Z,3.00
2018-07-29T08:59:52.200Z,2.70
2018-07-29T09:00:52.079Z,2.80
2018-07-29T09:01:52.088Z,3.30
2018-07-29T09:02:52.085Z,3.00
2018-07-29T09:03:51.979Z,2.70
2018-07-29T09:04:51.959Z,3.20
2018-07-29T09:05:51.962Z,2.90
2018-07-29T09:06:51.847Z,3.00
2018-07-29T09:07:51.839Z,2.70
2018-07-29T09:08:51.836Z,3.10
2018-07-29T09:09:51.796Z,2.90
2018-07-29T09:10:51.718Z,2.80
2018-07-29T09:11:51.720Z,2.90
2018-07-29T09:12:56.600Z,2.60
2018-07-29T09:13:51.596Z,2.80
2018-07-29T09:14:51.596Z,2.90
2018-07-29T09:15:51.619Z,2.70
2018-07-29T09:16:51.478Z,2.90
2018-07-29T09:17:51.476Z,2.90
2018-07-29T09:18:51.475Z,2.80
2018-07-29T09:19:51.356Z,2.70
2018-07-29T09:20:51.355Z,2.60
2018-07-29T09:21:51.361Z,2.90
2018-07-29T09:22:51.352Z,2.90
2018-07-29T09:23:51.233Z,2.60
2018-07-29T09:24:51.233Z,2.80
2018-07-29T09:25:51.233Z,2.60
2018-07-29T09:26:51.120Z,3.20
2018-07-29T09:27:51.115Z,2.80
2018-07-29T09:28:51.111Z,2.40
2018-07-29T09:29:50.994Z,2.70
2018-07-29T09:30:51.155Z,2.90
2018-07-29T09:31:50.997Z,2.60
2018-07-29T09:32:50.954Z,2.30
2018-07-29T09:33:50.873Z,2.40
2018-07-29T09:34:50.873Z,2.20
2018-07-29T09:35:50.869Z,2.50
2018-07-29T09:36:50.752Z,2.40
2018-07-29T09:37:50.752Z,2.60
2018-07-29T09:38:50.752Z,2.60
2018-07-29T09:39:50.635Z,2.70
2018-07-29T09:40:50.631Z,3.10
2018-07-29T09:41:50.630Z,2.70
2018-07-29T09:42:50.509Z,2.40
2018-07-29T09:43:50.513Z,2.40
2018-07-29T09:44:50.512Z,2.70
2018-07-29T09:45:50.507Z,2.40
2018-07-29T09:46:50.388Z,2.50
2018-07-29T09:47:50.392Z,2.50
2018-07-29T09:48:50.430Z,2.40
2018-07-29T09:49:50.268Z,2.30
2018-07-29T09:50:50.268Z,2.70
2018-07-29T09:51:50.269Z,2.80
2018-07-29T09:52:50.150Z,2.60
2018-07-29T09:53:50.162Z,2.70
2018-07-29T09:54:50.222Z,2.80
2018-07-29T09:55:50.154Z,2.80
2018-07-29T09:56:50.031Z,2.90
2018-07-29T09:57:50.028Z,2.80
2018-07-29T09:58:50.027Z,2.90
2018-07-29T09:59:49.903Z,3.50
2018-07-29T10:00:49.906Z,3.40
2018-07-29T10:01:49.906Z,2.80
2018-07-29T10:02:49.786Z,2.80
2018-07-29T10:03:49.786Z,2.70
2018-07-29T10:04:49.783Z,2.60
2018-07-29T10:05:49.784Z,2.70
2018-07-29T10:06:49.670Z,2.40
2018-07-29T10:07:49.662Z,2.50
2018-07-29T10:08:49.665Z,2.60
2018-07-29T10:09:49.543Z,2.40
2018-07-29T10:10:49.549Z,2.90
2018-07-29T10:11:49.542Z,2.50
2018-07-29T10:12:49.542Z,2.60
2018-07-29T10:13:49.424Z,2.80
2018-07-29T10:14:49.422Z,2.90
2018-07-29T10:15:49.422Z,2.80
2018-07-29T10:16:49.304Z,2.60
2018-07-29T10:17:49.303Z,2.70
2018-07-29T10:18:49.303Z,2.50
2018-07-29T10:19:49.182Z,2.80
2018-07-29T10:20:49.179Z,2.40
2018-07-29T10:21:49.181Z,2.60
2018-07-29T10:22:49.181Z,2.50
2018-07-29T10:23:49.064Z,2.40
2018-07-29T10:24:49.063Z,2.40
2018-07-29T10:25:49.060Z,2.80
2018-07-29T10:26:48.939Z,2.50
2018-07-29T10:27:49.015Z,2.40
2018-07-29T10:28:48.938Z,2.20
2018-07-29T10:29:48.822Z,2.40
2018-07-29T10:30:48.822Z,2.80
2018-07-29T10:31:48.816Z,2.50
2018-07-29T10:32:48.816Z,2.50
2018-07-29T10:33:48.701Z,3.10
2018-07-29T10:34:48.774Z,2.70
2018-07-29T10:35:48.700Z,2.70
2018-07-29T10:36:48.580Z,2.30
2018-07-29T10:37:48.575Z,2.60
2018-07-29T10:38:48.656Z,2.60
2018-07-29T10:39:48.583Z,2.50
2018-07-29T10:40:48.459Z,2.30
2018-07-29T10:41:48.456Z,2.40
2018-07-29T10:42:48.455Z,2.20
2018-07-29T10:43:48.349Z,2.40
2018-07-29T10:44:48.343Z,2.30
2018-07-29T10:45:48.334Z,2.50
2018-07-29T10:46:48.227Z,2.50
2018-07-29T10:47:48.216Z,2.60
2018-07-29T10:48:48.217Z,2.20
2018-07-29T10:49:48.213Z,2.40
2018-07-29T10:50:48.093Z,2.50
2018-07-29T10:51:48.096Z,2.30
2018-07-29T10:52:48.095Z,2.70
2018-07-29T10:53:47.973Z,2.50
2018-07-29T10:54:47.973Z,2.50
2018-07-29T10:55:47.978Z,2.60
2018-07-29T10:56:48.014Z,2.10
2018-07-29T10:57:47.854Z,2.50
2018-07-29T10:58:47.852Z,2.40
2018-07-29T10:59:47.923Z,2.60
2018-07-29T11:00:47.731Z,2.10
2018-07-29T11:01:47.731Z,2.10
2018-07-29T11:02:47.733Z,2.20
2018-07-29T11:03:47.612Z,2.30
2018-07-29T11:04:47.614Z,2.40
2018-07-29T11:05:47.609Z,2.30
2018-07-29T11:06:47.614Z,2.20
2018-07-29T11:07:47.490Z,2.30
2018-07-29T11:08:47.493Z,2.20
2018-07-29T11:09:47.488Z,2.40
2018-07-29T11:10:47.444Z,2.00
2018-07-29T11:11:47.367Z,2.60
2018-07-29T11:12:47.447Z,2.60
2018-07-29T11:13:47.429Z,2.50
2018-07-29T11:14:47.372Z,2.70
2018-07-29T11:15:47.366Z,2.20
2018-07-29T11:16:47.327Z,2.30
2018-07-29T11:17:47.227Z,2.40
2018-07-29T11:18:47.223Z,3.20
2018-07-29T11:19:47.226Z,5.80
2018-07-29T11:20:47.237Z,13.70
2018-07-29T11:21:47.018Z,3.00
2018-07-29T11:22:47.007Z,5.90
2018-07-29T11:23:47.025Z,8.60
2018-07-29T11:24:46.890Z,3.20
2018-07-29T11:25:46.892Z,2.50
2018-07-29T11:26:46.800Z,3.00
2018-07-29T11:27:46.766Z,3.00
2018-07-29T11:28:46.729Z,9.80
2018-07-29T11:29:46.694Z,3.20
2018-07-29T11:30:46.662Z,5.80
2018-07-29T11:31:46.626Z,4.20
2018-07-29T11:32:46.589Z,4.70
2018-07-29T11:33:46.555Z,4.40
2018-07-29T11:34:46.520Z,4.10
2018-07-29T11:35:46.482Z,3.10
2018-07-29T11:36:46.448Z,4.50
2018-07-29T11:37:46.413Z,4.20
2018-07-29T11:38:46.378Z,3.70
2018-07-29T11:39:46.354Z,3.60
2018-07-29T11:40:46.308Z,3.00
2018-07-29T11:41:46.296Z,2.40
2018-07-29T11:42:46.243Z,2.50
2018-07-29T11:43:46.201Z,3.30
2018-07-29T11:44:46.172Z,2.70
2018-07-29T11:45:46.131Z,2.60
2018-07-29T11:46:46.096Z,2.70
2018-07-29T11:47:46.065Z,3.10
2018-07-29T11:48:46.028Z,2.80
2018-07-29T11:49:45.991Z,2.90
2018-07-29T11:51:45.962Z,2.50
2018-07-29T11:52:45.885Z,2.60
2018-07-29T11:53:45.850Z,2.60
2018-07-29T11:54:45.815Z,2.60
2018-07-29T11:55:45.784Z,2.80
2018-07-29T11:56:45.742Z,2.20
2018-07-29T11:57:45.716Z,2.70
2018-07-29T11:58:45.693Z,2.50
2018-07-29T11:59:45.634Z,2.60
2018-07-29T12:00:45.601Z,2.40
2018-07-29T12:01:45.576Z,2.60
2018-07-29T12:02:45.530Z,2.80
2018-07-29T12:03:45.495Z,2.80
2018-07-29T12:04:45.459Z,2.70
2018-07-29T12:05:45.427Z,2.70
2018-07-29T12:06:45.396Z,2.50
2018-07-29T12:07:45.355Z,2.60
2018-07-29T12:08:45.319Z,2.60
2018-07-29T12:09:45.283Z,2.60
2018-07-29T12:10:45.248Z,2.80
2018-07-29T12:11:45.213Z,2.60
2018-07-29T12:12:45.184Z,2.60
2018-07-29T12:13:45.145Z,2.60
2018-07-29T12:14:45.109Z,2.60
2018-07-29T12:15:45.072Z,2.40
2018-07-29T12:16:45.042Z,2.70
2018-07-29T12:17:45.001Z,2.50
2018-07-29T12:18:44.966Z,3.30
2018-07-29T12:19:44.930Z,2.60
2018-07-29T12:20:44.895Z,2.50
2018-07-29T12:21:44.946Z,2.80
2018-07-29T12:22:44.863Z,2.80
2018-07-29T12:23:44.865Z,2.20
2018-07-29T12:24:44.863Z,2.70
2018-07-29T12:25:44.773Z,2.50
2018-07-29T12:26:44.742Z,2.50
2018-07-29T12:27:44.784Z,2.50
2018-07-29T12:28:44.623Z,2.20
2018-07-29T12:29:44.622Z,2.60
2018-07-29T12:30:44.697Z,2.70
2018-07-29T12:31:44.637Z,2.70
2018-07-29T12:32:44.503Z,2.60
2018-07-29T12:33:44.514Z,3.00
2018-07-29T12:34:44.500Z,2.70
2018-07-29T12:35:44.380Z,2.90
2018-07-29T12:36:44.379Z,2.80
2018-07-29T12:37:44.379Z,2.60
2018-07-29T12:38:44.337Z,2.70
2018-07-29T12:39:44.260Z,2.70
2018-07-29T12:40:44.258Z,2.60
2018-07-29T12:41:44.261Z,2.90
2018-07-29T12:42:44.150Z,2.70
2018-07-29T12:43:44.148Z,2.40
2018-07-29T12:44:44.138Z,2.70
2018-07-29T12:45:44.018Z,2.70
2018-07-29T12:46:44.022Z,2.60
2018-07-29T12:47:44.018Z,2.30
2018-07-29T12:48:44.023Z,2.80
2018-07-29T12:49:43.905Z,2.30
2018-07-29T12:50:43.902Z,2.60
2018-07-29T12:51:43.901Z,2.30
2018-07-29T12:52:43.776Z,2.30
2018-07-29T12:53:43.775Z,2.40
2018-07-29T12:54:43.777Z,2.70
2018-07-29T12:55:43.734Z,2.30
2018-07-29T12:56:43.654Z,2.30
2018-07-29T12:57:43.659Z,2.50
2018-07-29T12:58:43.659Z,2.20
2018-07-29T12:59:43.540Z,2.40
2018-07-29T13:00:43.535Z,2.70
2018-07-29T13:01:43.533Z,2.70
2018-07-29T13:02:43.417Z,2.40
2018-07-29T13:03:43.413Z,2.10
2018-07-29T13:04:43.415Z,2.40
2018-07-29T13:05:43.454Z,2.60
2018-07-29T13:06:43.296Z,2.30
2018-07-29T13:07:43.294Z,2.30
2018-07-29T13:08:43.292Z,2.60
2018-07-29T13:09:43.172Z,2.20
2018-07-29T13:10:43.171Z,2.30
2018-07-29T13:11:43.174Z,2.30
2018-07-29T13:12:43.055Z,2.20
2018-07-29T13:13:43.058Z,2.40
2018-07-29T13:14:43.050Z,2.90
2018-07-29T13:15:43.050Z,2.50
2018-07-29T13:16:42.932Z,2.50